createdAt,value
2019-04-22T00:02:49.004Z,50.30
2019-04-22T00:08:10.602Z,50.32
2019-04-22T00:13:21.596Z,50.80
2019-04-22T00:18:40.574Z,50.80
2019-04-22T00:23:36.527Z,50.53
2019-04-22T00:28:41.217Z,50.82
2019-04-22T00:33:39.232Z,50.80
2019-04-22T00:38:54.504Z,51.69
2019-04-22T00:43:59.628Z,51.12
2019-04-22T00:49:49.075Z,51.09
2019-04-22T00:54:10.685Z,51.91
2019-04-22T00:59:13.001Z,53.23
2019-04-22T01:04:20.183Z,53.71
2019-04-22T01:09:25.151Z,54.66
2019-04-22T01:14:28.369Z,55.69
2019-04-22T01:19:45.167Z,56.35
2019-04-22T01:24:38.729Z,58.14
2019-04-22T01:29:41.206Z,59.80
2019-04-22T01:34:46.094Z,62.05
2019-04-22T01:40:08.245Z,63.50
2019-04-22T01:45:13.990Z,64.81
2019-04-22T01:50:23.391Z,66.50
2019-04-22T01:55:27.729Z,68.58
2019-04-22T02:00:37.845Z,68.95
2019-04-22T02:05:39.416Z,69.93
2019-04-22T02:10:53.094Z,70.75
2019-04-22T02:15:52.502Z,71.31
2019-04-22T02:20:54.851Z,72.50
2019-04-22T02:36:29.139Z,75.23
2019-04-22T02:51:32.921Z,78.60
2019-04-22T02:57:09.337Z,78.99
2019-04-22T03:01:47.402Z,79.98
2019-04-22T03:06:49.543Z,80.63
2019-04-22T03:17:18.565Z,78.37
2019-04-22T03:22:16.175Z,78.59
2019-04-22T03:27:35.220Z,78.77
2019-04-22T03:32:56.322Z,79.97
2019-04-22T03:48:01.921Z,81.85
2019-04-22T03:58:01.757Z,75.07
2019-04-22T04:03:06.998Z,71.62
2019-04-22T04:13:23.056Z,72.70
2019-04-22T04:18:30.721Z,73.31
2019-04-22T04:23:37.887Z,73.73
2019-04-22T04:38:58.273Z,75.11
2019-04-22T04:44:01.809Z,72.65
2019-04-22T05:04:26.189Z,64.53
2019-04-22T05:09:37.145Z,61.55
2019-04-22T05:14:36.798Z,46.67
2019-04-22T05:19:36.228Z,32.73
2019-04-22T05:24:56.502Z,27.33
2019-04-22T05:30:08.795Z,24.29
2019-04-22T05:35:04.584Z,22.49
2019-04-22T05:40:08.769Z,23.70
2019-04-22T05:50:16.885Z,26.77
2019-04-22T05:55:25.057Z,25.67
2019-04-22T06:05:38.564Z,23.35
2019-04-22T06:10:45.408Z,22.83
2019-04-22T06:15:44.038Z,24.57
2019-04-22T06:31:11.049Z,39.85
2019-04-22T06:36:08.222Z,42.64
2019-04-22T06:46:20.641Z,45.58
2019-04-22T06:56:30.264Z,46.03
2019-04-22T07:01:57.532Z,47.37
2019-04-22T07:06:48.551Z,46.88
2019-04-22T07:11:50.019Z,47.42
2019-04-22T07:16:56.118Z,46.25
2019-04-22T07:22:03.312Z,46.19
2019-04-22T07:27:13.018Z,45.88
2019-04-22T07:32:17.174Z,46.13
2019-04-22T07:37:28.269Z,45.28
2019-04-22T07:47:40.925Z,45.73
2019-04-22T07:52:52.236Z,43.51
2019-04-22T07:57:50.727Z,44.13
2019-04-22T08:02:50.554Z,43.54
2019-04-22T08:07:59.211Z,42.49
2019-04-22T08:12:57.679Z,42.93
2019-04-22T08:18:22.178Z,41.51
2019-04-22T08:28:17.406Z,41.40
2019-04-22T08:33:29.558Z,40.73
2019-04-22T08:38:37.699Z,40.53
2019-04-22T08:43:47.669Z,39.82
2019-04-22T08:48:47.815Z,39.28
2019-04-22T08:53:57.412Z,38.61
2019-04-22T08:59:00.063Z,37.31
2019-04-22T09:09:09.743Z,37.65
2019-04-22T09:14:17.703Z,28.20
2019-04-22T09:19:17.825Z,23.84
2019-04-22T09:24:23.386Z,24.96
2019-04-22T09:29:34.187Z,22.77
2019-04-22T09:34:33.844Z,23.61
2019-04-22T09:39:41.351Z,23.52
2019-04-22T09:44:47.599Z,24.72
2019-04-22T09:49:55.477Z,25.58
2019-04-22T09:55:07.476Z,24.31
2019-04-22T10:00:21.872Z,24.08
2019-04-22T10:05:17.360Z,23.62
2019-04-22T10:10:15.278Z,24.44
2019-04-22T10:15:23.037Z,25.97
2019-04-22T10:20:26.948Z,25.01
2019-04-22T10:25:35.096Z,25.59
2019-04-22T10:30:43.970Z,27.63
2019-04-22T10:35:23.110Z,25.29
2019-04-22T10:40:25.763Z,27.19
2019-04-22T10:45:30.343Z,26.35
2019-04-22T10:50:46.598Z,23.86
2019-04-22T10:55:51.638Z,25.20
2019-04-22T11:00:56.344Z,24.44
2019-04-22T11:06:07.500Z,26.58
2019-04-22T11:11:26.532Z,27.29
2019-04-22T11:16:23.470Z,29.02
2019-04-22T11:21:27.505Z,29.68
2019-04-22T11:26:31.784Z,29.67
2019-04-22T11:31:46.510Z,28.42
2019-04-22T11:36:57.268Z,27.49
2019-04-22T11:47:17.536Z,29.48
2019-04-22T11:52:22.712Z,28.94
2019-04-22T11:57:34.919Z,28.75
2019-04-22T12:02:40.827Z,28.80
2019-04-22T12:07:55.203Z,28.09
2019-04-22T12:19:05.040Z,32.11
2019-04-22T12:24:15.518Z,31.54
2019-04-22T12:29:22.466Z,31.74
2019-04-22T12:34:33.339Z,30.81
2019-04-22T12:39:48.080Z,29.62
2019-04-22T12:45:02.421Z,31.15
2019-04-22T12:55:54.906Z,29.83
2019-04-22T13:06:21.813Z,30.95
2019-04-22T13:16:42.836Z,31.30
2019-04-22T13:21:54.423Z,31.75
2019-04-22T13:27:08.877Z,30.59
2019-04-22T13:32:20.682Z,30.83
2019-04-22T13:37:25.414Z,29.96
2019-04-22T13:42:31.519Z,31.35
2019-04-22T13:48:02.886Z,29.65
2019-04-22T13:53:37.651Z,29.82
2019-04-22T13:58:24.304Z,29.80
2019-04-22T14:03:26.804Z,29.84
2019-04-22T14:13:56.768Z,29.01
2019-04-22T14:19:07.972Z,28.85
2019-04-22T14:24:13.525Z,28.36
2019-04-22T14:29:23.899Z,28.27
2019-04-22T14:34:28.538Z,29.67
2019-04-22T14:39:33.764Z,29.17
2019-04-22T14:50:04.845Z,27.05
2019-04-22T14:55:02.894Z,27.88
2019-04-22T14:59:55.769Z,28.06
2019-04-22T15:05:00.579Z,28.81
2019-04-22T15:10:06.095Z,28.57
2019-04-22T15:15:11.361Z,29.19
2019-04-22T15:20:15.982Z,29.28
2019-04-22T15:25:20.705Z,28.28
2019-04-22T15:30:25.558Z,29.21
2019-04-22T15:35:31.301Z,29.82
2019-04-22T15:40:36.537Z,29.23
2019-04-22T15:45:41.234Z,29.51
2019-04-22T15:50:46.585Z,29.76
2019-04-22T15:55:50.887Z,30.38
2019-04-22T16:01:05.921Z,30.57
2019-04-22T16:06:02.159Z,30.15
2019-04-22T16:11:06.431Z,30.59
2019-04-22T16:16:10.476Z,30.11
2019-04-22T16:21:28.920Z,31.25
2019-04-22T16:26:20.353Z,31.16
2019-04-22T16:31:25.092Z,31.73
2019-04-22T16:36:29.321Z,32.46
2019-04-22T16:41:34.719Z,31.25
2019-04-22T16:46:39.369Z,33.07
2019-04-22T16:51:43.367Z,33.77
2019-04-22T16:56:49.812Z,34.22
2019-04-22T17:01:54.536Z,34.13
2019-04-22T17:06:59.541Z,34.47
2019-04-22T17:12:03.679Z,35.36
2019-04-22T17:17:08.530Z,36.22
2019-04-22T17:22:13.329Z,36.61
2019-04-22T17:27:18.192Z,36.95
2019-04-22T17:32:23.459Z,36.92
2019-04-22T17:37:31.663Z,37.98
2019-04-22T17:42:53.187Z,39.24
2019-04-22T17:47:54.555Z,39.65
2019-04-22T17:53:19.762Z,40.57
2019-04-22T17:58:21.129Z,41.37
2019-04-22T18:03:12.714Z,42.10
2019-04-22T18:08:25.464Z,43.20
2019-04-22T18:13:39.229Z,44.20
2019-04-22T18:18:36.981Z,44.21
2019-04-22T18:23:29.398Z,45.48
2019-04-22T18:28:55.931Z,46.08
2019-04-22T18:33:54.588Z,46.29
2019-04-22T18:39:10.704Z,46.51
2019-04-22T18:44:17.941Z,47.51
2019-04-22T18:49:22.685Z,47.97
2019-04-22T18:54:30.943Z,48.77
2019-04-22T18:59:21.583Z,49.39
2019-04-22T19:04:27.510Z,48.96
2019-04-22T19:10:04.545Z,49.65
2019-04-22T19:20:42.855Z,50.37
2019-04-22T19:25:52.298Z,50.84
2019-04-22T19:31:09.344Z,50.80
2019-04-22T19:36:19.214Z,50.96
2019-04-22T19:41:29.421Z,52.55
2019-04-22T19:47:18.586Z,52.30
2019-04-22T19:52:21.037Z,52.60
2019-04-22T19:57:26.482Z,53.05
2019-04-22T20:02:40.969Z,53.52
2019-04-22T20:08:14.666Z,53.40
2019-04-22T20:19:06.935Z,53.57
2019-04-22T20:24:05.406Z,53.49
2019-04-22T20:35:07.676Z,54.13
2019-04-22T20:40:18.050Z,53.96
2019-04-22T20:45:45.955Z,54.11
2019-04-22T20:50:52.781Z,54.52
2019-04-22T20:56:08.898Z,55.09
2019-04-22T21:01:22.864Z,54.48
2019-04-22T21:06:33.363Z,54.29
2019-04-22T21:11:46.722Z,54.50
2019-04-22T21:17:00.668Z,55.30
2019-04-22T21:22:16.476Z,55.93
2019-04-22T21:27:39.197Z,56.24
2019-04-22T21:32:38.535Z,56.49
2019-04-22T21:37:58.602Z,56.12
2019-04-22T21:43:07.106Z,56.50
2019-04-22T21:48:27.933Z,56.21
2019-04-22T21:58:43.624Z,56.31
2019-04-22T22:03:56.499Z,56.45
2019-04-22T22:09:05.852Z,56.31
2019-04-22T22:14:18.047Z,56.68
2019-04-22T22:19:34.410Z,57.10
2019-04-22T22:24:43.623Z,57.23
2019-04-22T22:30:31.596Z,57.17
2019-04-22T22:35:12.016Z,57.22
2019-04-22T22:40:07.479Z,57.81
2019-04-22T22:51:03.374Z,58.48
2019-04-22T22:56:28.880Z,58.79
2019-04-22T23:01:37.933Z,59.05
2019-04-22T23:06:51.830Z,59.40
2019-04-22T23:12:25.099Z,59.90
2019-04-22T23:17:01.191Z,60.65
2019-04-22T23:27:56.936Z,60.34
2019-04-22T23:33:03.398Z,59.92
2019-04-22T23:38:23.177Z,60.61
2019-04-22T23:43:44.737Z,60.67
2019-04-22T23:48:41.203Z,60.79
2019-04-22T23:59:23.434Z,60.04
